METAR AND TAF INFORMATION
METAR FOR KSJX
ADDS - METARS form results

(0227 UTC 21 September 2018)
Data provider http://aviationweather.gov/metar/data/
 
METAR text: KSJX 210216Z AUTO 11012G16KT 7SM BKN006 BKN012 OVC016 18/17 A2980 RMK AO2 T01770173
Conditions at: KSJX (BEAVER ISLAND , MI, US) observed 0216 UTC 21 September 2018
Temperature: 17.7°C (64°F)
Dewpoint: 17.3°C (63°F) [RH = 98%]
Pressure (altimeter): 29.80 inches Hg (1009.2 mb)
Winds: from the ESE (110 degrees) at 14 MPH (12 knots; 6.2 m/s)
gusting to 18 MPH (16 knots; 8.2 m/s)
Visibility: 7 miles (11 km)
Ceiling: 600 feet AGL
Clouds: broken clouds at 600 feet AGL
broken clouds at 1200 feet AGL
overcast cloud deck at 1600 feet AGL
Weather: automated observation with no human augmentation;
there may or may not be significant weather present at this time

METAR text: KSJX 210215Z AUTO 11012G16KT 7SM BKN006 BKN012 OVC016 18/17 A2980 RMK AO2 T01770173
Conditions at: KSJX (BEAVER ISLAND , MI, US) observed 0215 UTC 21 September 2018
Temperature: 17.7°C (64°F)
Dewpoint: 17.3°C (63°F) [RH = 98%]
Pressure (altimeter): 29.80 inches Hg (1009.2 mb)
Winds: from the ESE (110 degrees) at 14 MPH (12 knots; 6.2 m/s)
gusting to 18 MPH (16 knots; 8.2 m/s)
Visibility: 7 miles (11 km)
Ceiling: 600 feet AGL
Clouds: broken clouds at 600 feet AGL
broken clouds at 1200 feet AGL
overcast cloud deck at 1600 feet AGL
Weather: automated observation with no human augmentation;
there may or may not be significant weather present at this time

METAR text: KSJX 210156Z AUTO 11011G17KT 2SM -RA OVC009 18/17 A2982 RMK AO2 T01760172
Conditions at: KSJX (BEAVER ISLAND , MI, US) observed 0156 UTC 21 September 2018
Temperature: 17.6°C (64°F)
Dewpoint: 17.2°C (63°F) [RH = 98%]
Pressure (altimeter): 29.82 inches Hg (1009.9 mb)
Winds: from the ESE (110 degrees) at 13 MPH (11 knots; 5.7 m/s)
gusting to 20 MPH (17 knots; 8.7 m/s)
Visibility: 2.00 miles (3.22 km)
Ceiling: 900 feet AGL
Clouds: overcast cloud deck at 900 feet AGL
Weather: -RA  (light rain)

METAR text: KSJX 210155Z AUTO 11010G17KT 2SM -RA OVC009 18/17 A2982 RMK AO2 T01750171
Conditions at: KSJX (BEAVER ISLAND , MI, US) observed 0155 UTC 21 September 2018
Temperature: 17.5°C (64°F)
Dewpoint: 17.1°C (63°F) [RH = 98%]
Pressure (altimeter): 29.82 inches Hg (1009.9 mb)
Winds: from the ESE (110 degrees) at 12 MPH (10 knots; 5.1 m/s)
gusting to 20 MPH (17 knots; 8.7 m/s)
Visibility: 2.00 miles (3.22 km)
Ceiling: 900 feet AGL
Clouds: overcast cloud deck at 900 feet AGL
Weather: -RA  (light rain)

METAR text: KSJX 210136Z AUTO 11012G16KT 2 1/2SM BR OVC007 18/17 A2982 RMK AO2 T01750170
Conditions at: KSJX (BEAVER ISLAND , MI, US) observed 0136 UTC 21 September 2018
Temperature: 17.5°C (64°F)
Dewpoint: 17.0°C (63°F) [RH = 97%]
Pressure (altimeter): 29.82 inches Hg (1009.9 mb)
Winds: from the ESE (110 degrees) at 14 MPH (12 knots; 6.2 m/s)
gusting to 18 MPH (16 knots; 8.2 m/s)
Visibility: 2.50 miles (4.02 km)
Ceiling: 700 feet AGL
Clouds: overcast cloud deck at 700 feet AGL
Weather: BR  (mist)

METAR text: KSJX 210135Z AUTO 11012G16KT 2 1/2SM BR OVC007 18/17 A2982 RMK AO2 T01750170
Conditions at: KSJX (BEAVER ISLAND , MI, US) observed 0135 UTC 21 September 2018
Temperature: 17.5°C (64°F)
Dewpoint: 17.0°C (63°F) [RH = 97%]
Pressure (altimeter): 29.82 inches Hg (1009.9 mb)
Winds: from the ESE (110 degrees) at 14 MPH (12 knots; 6.2 m/s)
gusting to 18 MPH (16 knots; 8.2 m/s)
Visibility: 2.50 miles (4.02 km)
Ceiling: 700 feet AGL
Clouds: overcast cloud deck at 700 feet AGL
Weather: BR  (mist)

 AIRPORT MAP

 RUNWAY INFORMATION
Runway 05 Runway length 2130 ft Runway width 120 ft
Runway elevation 0 ft Runway displaced threshold 0 ft Runway heading 42
Runway 23 Runway length 2130 ft Runway width 120 ft
Runway elevation 0 ft Runway displaced threshold 0 ft Runway heading 222
Runway 09 Runway length 4300 ft Runway width 75 ft
Runway elevation 669 ft Runway displaced threshold 0 ft Runway heading 90
Runway 27 Runway length 4300 ft Runway width 75 ft
Runway elevation 667 ft Runway displaced threshold 0 ft Runway heading 270
Runway 14 Runway length 3300 ft Runway width 120 ft
Runway elevation 669 ft Runway displaced threshold 0 ft Runway heading 132
Runway 32 Runway length 3300 ft Runway width 120 ft
Runway elevation 669 ft Runway displaced threshold 600 ft Runway heading 312

 AIRPORT FREQUENCIES
Type AWOS Name AWOS 3 Frequency 118.075 MHZ
Type CNTR Name MINNEAPOLI Frequency 134.6 MHZ
Type UNIC Name CTAF/UNICO Frequency 122.8 MHZ

 AIRPORT NEAR NAVIGATION AIDS



Powered by Virtual Airlines Manager [v2.6.2]